sensor_id;sensor_type;location;lat;lon;timestamp;P1;durP1;ratioP1;P2;durP2;ratioP2
56680;SDS011;42558;52.388;13.390;2022-09-09T00:02:19;10.64;;;7.98;;
56680;SDS011;42558;52.388;13.390;2022-09-09T00:05:08;14.25;;;8.93;;
56680;SDS011;42558;52.388;13.390;2022-09-09T00:07:51;11.78;;;7.41;;
56680;SDS011;42558;52.388;13.390;2022-09-09T00:10:31;14.25;;;7.60;;
56680;SDS011;42558;52.388;13.390;2022-09-09T00:13:19;11.78;;;7.60;;
56680;SDS011;42558;52.388;13.390;2022-09-09T00:16:07;11.40;;;7.41;;
56680;SDS011;42558;52.388;13.390;2022-09-09T00:19:27;10.83;;;7.79;;
56680;SDS011;42558;52.388;13.390;2022-09-09T00:22:14;9.69;;;7.03;;
56680;SDS011;42558;52.388;13.390;2022-09-09T00:24:48;10.07;;;7.22;;
56680;SDS011;42558;52.388;13.390;2022-09-09T00:27:31;18.43;;;8.36;;
56680;SDS011;42558;52.388;13.390;2022-09-09T00:30:22;11.40;;;7.22;;
56680;SDS011;42558;52.388;13.390;2022-09-09T00:32:59;12.16;;;6.84;;
56680;SDS011;42558;52.388;13.390;2022-09-09T00:35:34;10.83;;;7.41;;
56680;SDS011;42558;52.388;13.390;2022-09-09T00:38:19;9.88;;;7.22;;
56680;SDS011;42558;52.388;13.390;2022-09-09T00:43:40;11.59;;;7.79;;
56680;SDS011;42558;52.388;13.390;2022-09-09T00:46:32;10.45;;;7.41;;
56680;SDS011;42558;52.388;13.390;2022-09-09T00:52:08;10.83;;;7.79;;
56680;SDS011;42558;52.388;13.390;2022-09-09T00:57:42;10.26;;;6.65;;
56680;SDS011;42558;52.388;13.390;2022-09-09T01:08:37;9.50;;;6.84;;
56680;SDS011;42558;52.388;13.390;2022-09-09T01:11:26;10.83;;;6.65;;
56680;SDS011;42558;52.388;13.390;2022-09-09T01:17:01;12.92;;;7.79;;
56680;SDS011;42558;52.388;13.390;2022-09-09T01:19:49;10.45;;;7.03;;
56680;SDS011;42558;52.388;13.390;2022-09-09T01:22:52;13.68;;;8.55;;
56680;SDS011;42558;52.388;13.390;2022-09-09T01:28:52;10.83;;;7.60;;
56680;SDS011;42558;52.388;13.390;2022-09-09T01:31:41;14.25;;;7.60;;
56680;SDS011;42558;52.388;13.390;2022-09-09T01:34:18;11.78;;;7.60;;
56680;SDS011;42558;52.388;13.390;2022-09-09T01:37:02;11.02;;;7.60;;
56680;SDS011;42558;52.388;13.390;2022-09-09T01:39:32;10.64;;;6.84;;
56680;SDS011;42558;52.388;13.390;2022-09-09T01:42:01;10.07;;;7.03;;
56680;SDS011;42558;52.388;13.390;2022-09-09T01:44:34;11.40;;;7.79;;
56680;SDS011;42558;52.388;13.390;2022-09-09T01:47:02;13.30;;;8.17;;
56680;SDS011;42558;52.388;13.390;2022-09-09T01:49:30;11.40;;;7.98;;
56680;SDS011;42558;52.388;13.390;2022-09-09T01:51:59;11.97;;;7.79;;
56680;SDS011;42558;52.388;13.390;2022-09-09T01:54:28;13.30;;;9.31;;
56680;SDS011;42558;52.388;13.390;2022-09-09T02:00:06;12.92;;;7.79;;
56680;SDS011;42558;52.388;13.390;2022-09-09T02:02:47;10.45;;;7.41;;
56680;SDS011;42558;52.388;13.390;2022-09-09T02:05:47;11.02;;;7.60;;
56680;SDS011;42558;52.388;13.390;2022-09-09T02:08:36;11.21;;;6.84;;
56680;SDS011;42558;52.388;13.390;2022-09-09T02:11:25;11.02;;;7.03;;
56680;SDS011;42558;52.388;13.390;2022-09-09T02:14:06;9.88;;;6.65;;
56680;SDS011;42558;52.388;13.390;2022-09-09T02:16:42;11.59;;;7.22;;
56680;SDS011;42558;52.388;13.390;2022-09-09T02:21:59;10.07;;;6.84;;
56680;SDS011;42558;52.388;13.390;2022-09-09T02:24:31;12.35;;;7.22;;
56680;SDS011;42558;52.388;13.390;2022-09-09T02:27:05;13.68;;;8.17;;
56680;SDS011;42558;52.388;13.390;2022-09-09T02:29:41;11.02;;;7.41;;
56680;SDS011;42558;52.388;13.390;2022-09-09T02:32:15;13.49;;;8.17;;
56680;SDS011;42558;52.388;13.390;2022-09-09T02:34:49;16.15;;;8.55;;
56680;SDS011;42558;52.388;13.390;2022-09-09T02:37:24;12.54;;;7.79;;
56680;SDS011;42558;52.388;13.390;2022-09-09T02:39:58;11.02;;;7.41;;
56680;SDS011;42558;52.388;13.390;2022-09-09T02:42:25;12.54;;;7.79;;
56680;SDS011;42558;52.388;13.390;2022-09-09T02:44:52;11.78;;;8.17;;
56680;SDS011;42558;52.388;13.390;2022-09-09T02:47:34;11.40;;;7.79;;
56680;SDS011;42558;52.388;13.390;2022-09-09T02:50:34;12.35;;;7.79;;
56680;SDS011;42558;52.388;13.390;2022-09-09T02:53:19;13.11;;;7.41;;
56680;SDS011;42558;52.388;13.390;2022-09-09T02:55:54;11.97;;;7.22;;
56680;SDS011;42558;52.388;13.390;2022-09-09T02:58:26;11.21;;;7.79;;
56680;SDS011;42558;52.388;13.390;2022-09-09T03:00:54;12.73;;;7.41;;
56680;SDS011;42558;52.388;13.390;2022-09-09T03:03:24;14.63;;;7.60;;
56680;SDS011;42558;52.388;13.390;2022-09-09T03:05:51;12.92;;;7.60;;
56680;SDS011;42558;52.388;13.390;2022-09-09T03:08:18;11.21;;;7.60;;
56680;SDS011;42558;52.388;13.390;2022-09-09T03:10:44;12.16;;;8.17;;
56680;SDS011;42558;52.388;13.390;2022-09-09T03:13:11;11.97;;;7.79;;
56680;SDS011;42558;52.388;13.390;2022-09-09T03:15:39;12.16;;;7.98;;
56680;SDS011;42558;52.388;13.390;2022-09-09T03:18:06;11.97;;;7.03;;
56680;SDS011;42558;52.388;13.390;2022-09-09T03:20:33;10.07;;;6.65;;
56680;SDS011;42558;52.388;13.390;2022-09-09T03:23:00;13.87;;;7.60;;
56680;SDS011;42558;52.388;13.390;2022-09-09T03:25:28;12.73;;;8.55;;
56680;SDS011;42558;52.388;13.390;2022-09-09T03:27:55;12.35;;;8.17;;
56680;SDS011;42558;52.388;13.390;2022-09-09T03:30:24;13.30;;;7.98;;
56680;SDS011;42558;52.388;13.390;2022-09-09T03:32:53;13.49;;;7.41;;
56680;SDS011;42558;52.388;13.390;2022-09-09T03:35:19;11.78;;;7.98;;
56680;SDS011;42558;52.388;13.390;2022-09-09T03:37:47;11.97;;;7.60;;
56680;SDS011;42558;52.388;13.390;2022-09-09T03:40:14;12.73;;;7.60;;
56680;SDS011;42558;52.388;13.390;2022-09-09T03:42:41;13.87;;;7.03;;
56680;SDS011;42558;52.388;13.390;2022-09-09T03:45:09;10.45;;;7.22;;
56680;SDS011;42558;52.388;13.390;2022-09-09T03:47:37;15.20;;;7.98;;
56680;SDS011;42558;52.388;13.390;2022-09-09T03:50:05;11.02;;;7.41;;
56680;SDS011;42558;52.388;13.390;2022-09-09T03:52:37;9.12;;;6.46;;
56680;SDS011;42558;52.388;13.390;2022-09-09T03:55:06;11.97;;;6.84;;
56680;SDS011;42558;52.388;13.390;2022-09-09T03:57:34;12.73;;;7.98;;
56680;SDS011;42558;52.388;13.390;2022-09-09T04:00:06;10.26;;;6.65;;
56680;SDS011;42558;52.388;13.390;2022-09-09T04:02:34;10.26;;;6.46;;
56680;SDS011;42558;52.388;13.390;2022-09-09T04:05:01;10.07;;;6.65;;
56680;SDS011;42558;52.388;13.390;2022-09-09T04:07:28;12.73;;;6.84;;
56680;SDS011;42558;52.388;13.390;2022-09-09T04:09:55;11.78;;;7.22;;
56680;SDS011;42558;52.388;13.390;2022-09-09T04:12:21;12.92;;;6.65;;
56680;SDS011;42558;52.388;13.390;2022-09-09T04:14:49;9.88;;;5.89;;
56680;SDS011;42558;52.388;13.390;2022-09-09T04:17:16;11.40;;;6.08;;
56680;SDS011;42558;52.388;13.390;2022-09-09T04:19:43;11.78;;;6.84;;
56680;SDS011;42558;52.388;13.390;2022-09-09T04:22:10;11.02;;;6.08;;
56680;SDS011;42558;52.388;13.390;2022-09-09T04:24:37;9.88;;;6.84;;
56680;SDS011;42558;52.388;13.390;2022-09-09T04:27:04;9.31;;;6.27;;
56680;SDS011;42558;52.388;13.390;2022-09-09T04:29:31;13.49;;;6.65;;
56680;SDS011;42558;52.388;13.390;2022-09-09T04:31:58;11.21;;;6.65;;
56680;SDS011;42558;52.388;13.390;2022-09-09T04:34:25;12.73;;;6.65;;
56680;SDS011;42558;52.388;13.390;2022-09-09T04:36:52;8.55;;;6.08;;
56680;SDS011;42558;52.388;13.390;2022-09-09T04:39:18;10.07;;;6.84;;
56680;SDS011;42558;52.388;13.390;2022-09-09T04:41:46;10.26;;;6.65;;
56680;SDS011;42558;52.388;13.390;2022-09-09T04:44:13;11.59;;;7.22;;
56680;SDS011;42558;52.388;13.390;2022-09-09T04:46:40;13.30;;;6.84;;
56680;SDS011;42558;52.388;13.390;2022-09-09T04:49:07;13.11;;;7.41;;
56680;SDS011;42558;52.388;13.390;2022-09-09T04:51:40;10.07;;;7.60;;
56680;SDS011;42558;52.388;13.390;2022-09-09T04:54:07;12.35;;;7.22;;
56680;SDS011;42558;52.388;13.390;2022-09-09T04:56:33;9.88;;;6.27;;
56680;SDS011;42558;52.388;13.390;2022-09-09T04:59:00;12.54;;;6.65;;
56680;SDS011;42558;52.388;13.390;2022-09-09T05:01:29;11.21;;;6.08;;
56680;SDS011;42558;52.388;13.390;2022-09-09T05:03:56;10.83;;;7.03;;
56680;SDS011;42558;52.388;13.390;2022-09-09T05:06:22;12.35;;;7.03;;
56680;SDS011;42558;52.388;13.390;2022-09-09T05:08:50;10.64;;;7.03;;
56680;SDS011;42558;52.388;13.390;2022-09-09T05:11:22;9.88;;;6.46;;
56680;SDS011;42558;52.388;13.390;2022-09-09T05:13:51;12.35;;;7.03;;
56680;SDS011;42558;52.388;13.390;2022-09-09T05:16:19;10.26;;;6.46;;
56680;SDS011;42558;52.388;13.390;2022-09-09T05:18:47;10.64;;;6.27;;
56680;SDS011;42558;52.388;13.390;2022-09-09T05:21:17;10.26;;;6.84;;
56680;SDS011;42558;52.388;13.390;2022-09-09T05:23:46;10.26;;;6.46;;
56680;SDS011;42558;52.388;13.390;2022-09-09T05:26:15;9.50;;;5.13;;
56680;SDS011;42558;52.388;13.390;2022-09-09T05:28:43;9.50;;;6.27;;
56680;SDS011;42558;52.388;13.390;2022-09-09T05:31:12;9.12;;;6.08;;
56680;SDS011;42558;52.388;13.390;2022-09-09T05:33:42;8.55;;;5.70;;
56680;SDS011;42558;52.388;13.390;2022-09-09T05:36:17;11.02;;;4.94;;
56680;SDS011;42558;52.388;13.390;2022-09-09T05:38:47;9.88;;;5.89;;
56680;SDS011;42558;52.388;13.390;2022-09-09T05:41:14;11.97;;;5.32;;
56680;SDS011;42558;52.388;13.390;2022-09-09T05:43:44;10.26;;;5.89;;
56680;SDS011;42558;52.388;13.390;2022-09-09T05:46:16;14.06;;;7.22;;
56680;SDS011;42558;52.388;13.390;2022-09-09T05:48:46;9.50;;;6.08;;
56680;SDS011;42558;52.388;13.390;2022-09-09T05:51:16;12.16;;;6.65;;
56680;SDS011;42558;52.388;13.390;2022-09-09T05:53:48;11.78;;;6.08;;
56680;SDS011;42558;52.388;13.390;2022-09-09T05:56:17;11.02;;;6.27;;
56680;SDS011;42558;52.388;13.390;2022-09-09T05:58:51;10.26;;;6.08;;
56680;SDS011;42558;52.388;13.390;2022-09-09T06:01:22;13.87;;;5.32;;
56680;SDS011;42558;52.388;13.390;2022-09-09T06:03:54;9.50;;;6.08;;
56680;SDS011;42558;52.388;13.390;2022-09-09T06:06:26;10.26;;;5.51;;
56680;SDS011;42558;52.388;13.390;2022-09-09T06:08:57;13.68;;;6.27;;
56680;SDS011;42558;52.388;13.390;2022-09-09T06:11:27;10.07;;;5.70;;
56680;SDS011;42558;52.388;13.390;2022-09-09T06:13:57;10.45;;;5.51;;
56680;SDS011;42558;52.388;13.390;2022-09-09T06:16:27;11.21;;;6.27;;
56680;SDS011;42558;52.388;13.390;2022-09-09T06:18:56;8.93;;;4.37;;
56680;SDS011;42558;52.388;13.390;2022-09-09T06:21:30;13.49;;;5.13;;
56680;SDS011;42558;52.388;13.390;2022-09-09T06:24:00;11.78;;;5.51;;
56680;SDS011;42558;52.388;13.390;2022-09-09T06:26:32;12.54;;;5.89;;
56680;SDS011;42558;52.388;13.390;2022-09-09T06:29:02;11.02;;;5.51;;
56680;SDS011;42558;52.388;13.390;2022-09-09T06:31:33;8.36;;;4.94;;
56680;SDS011;42558;52.388;13.390;2022-09-09T06:34:07;9.88;;;5.32;;
56680;SDS011;42558;52.388;13.390;2022-09-09T06:36:37;10.83;;;5.51;;
56680;SDS011;42558;52.388;13.390;2022-09-09T06:39:05;10.45;;;5.13;;
56680;SDS011;42558;52.388;13.390;2022-09-09T06:41:40;9.50;;;4.56;;
56680;SDS011;42558;52.388;13.390;2022-09-09T06:44:09;9.88;;;5.51;;
56680;SDS011;42558;52.388;13.390;2022-09-09T06:46:38;10.64;;;5.89;;
56680;SDS011;42558;52.388;13.390;2022-09-09T06:49:08;9.50;;;5.32;;
56680;SDS011;42558;52.388;13.390;2022-09-09T06:51:36;10.07;;;5.51;;
56680;SDS011;42558;52.388;13.390;2022-09-09T06:54:11;11.78;;;5.13;;
56680;SDS011;42558;52.388;13.390;2022-09-09T06:56:40;11.97;;;5.13;;
56680;SDS011;42558;52.388;13.390;2022-09-09T06:59:10;9.50;;;4.56;;
56680;SDS011;42558;52.388;13.390;2022-09-09T07:01:40;9.50;;;5.13;;
56680;SDS011;42558;52.388;13.390;2022-09-09T07:04:08;8.36;;;4.75;;
56680;SDS011;42558;52.388;13.390;2022-09-09T07:06:42;8.93;;;4.75;;
56680;SDS011;42558;52.388;13.390;2022-09-09T07:09:13;11.59;;;4.37;;
56680;SDS011;42558;52.388;13.390;2022-09-09T07:11:44;11.40;;;4.56;;
56680;SDS011;42558;52.388;13.390;2022-09-09T07:14:13;11.59;;;4.37;;
56680;SDS011;42558;52.388;13.390;2022-09-09T07:16:41;12.54;;;5.51;;
56680;SDS011;42558;52.388;13.390;2022-09-09T07:19:10;14.25;;;4.94;;
56680;SDS011;42558;52.388;13.390;2022-09-09T07:21:39;11.59;;;4.56;;
56680;SDS011;42558;52.388;13.390;2022-09-09T07:24:09;8.74;;;4.18;;
56680;SDS011;42558;52.388;13.390;2022-09-09T07:26:38;7.60;;;3.80;;
56680;SDS011;42558;52.388;13.390;2022-09-09T07:29:06;10.83;;;4.18;;
56680;SDS011;42558;52.388;13.390;2022-09-09T07:31:37;7.60;;;4.18;;
56680;SDS011;42558;52.388;13.390;2022-09-09T07:34:06;9.12;;;4.18;;
56680;SDS011;42558;52.388;13.390;2022-09-09T07:36:36;8.36;;;4.18;;
56680;SDS011;42558;52.388;13.390;2022-09-09T07:39:10;8.93;;;3.80;;
56680;SDS011;42558;52.388;13.390;2022-09-09T07:41:44;7.41;;;3.23;;
56680;SDS011;42558;52.388;13.390;2022-09-09T07:44:18;8.36;;;3.42;;
56680;SDS011;42558;52.388;13.390;2022-09-09T07:46:48;7.79;;;3.61;;
56680;SDS011;42558;52.388;13.390;2022-09-09T07:49:15;6.08;;;3.04;;
56680;SDS011;42558;52.388;13.390;2022-09-09T07:51:44;8.74;;;3.80;;
56680;SDS011;42558;52.388;13.390;2022-09-09T07:54:14;9.31;;;3.42;;
56680;SDS011;42558;52.388;13.390;2022-09-09T07:56:42;8.17;;;3.42;;
56680;SDS011;42558;52.388;13.390;2022-09-09T07:59:09;7.41;;;3.80;;
56680;SDS011;42558;52.388;13.390;2022-09-09T08:01:42;9.12;;;4.18;;
56680;SDS011;42558;52.388;13.390;2022-09-09T08:04:15;9.69;;;3.99;;
56680;SDS011;42558;52.388;13.390;2022-09-09T08:06:49;8.17;;;3.61;;
56680;SDS011;42558;52.388;13.390;2022-09-09T08:09:21;7.03;;;3.42;;
56680;SDS011;42558;52.388;13.390;2022-09-09T08:11:51;9.69;;;3.61;;
56680;SDS011;42558;52.388;13.390;2022-09-09T08:14:18;8.55;;;3.80;;
56680;SDS011;42558;52.388;13.390;2022-09-09T08:16:47;9.12;;;3.23;;
56680;SDS011;42558;52.388;13.390;2022-09-09T08:19:16;13.30;;;4.18;;
56680;SDS011;42558;52.388;13.390;2022-09-09T08:21:44;10.07;;;3.61;;
56680;SDS011;42558;52.388;13.390;2022-09-09T08:24:12;12.16;;;3.61;;
56680;SDS011;42558;52.388;13.390;2022-09-09T08:26:44;6.65;;;3.61;;
56680;SDS011;42558;52.388;13.390;2022-09-09T08:29:16;8.93;;;3.23;;
56680;SDS011;42558;52.388;13.390;2022-09-09T08:31:51;7.79;;;3.80;;
56680;SDS011;42558;52.388;13.390;2022-09-09T08:34:21;8.55;;;3.42;;
56680;SDS011;42558;52.388;13.390;2022-09-09T08:36:50;10.64;;;3.61;;
56680;SDS011;42558;52.388;13.390;2022-09-09T08:39:19;10.83;;;3.99;;
56680;SDS011;42558;52.388;13.390;2022-09-09T08:45:03;8.93;;;3.80;;
56680;SDS011;42558;52.388;13.390;2022-09-09T08:48:05;6.65;;;3.23;;
56680;SDS011;42558;52.388;13.390;2022-09-09T08:50:49;8.55;;;3.99;;
56680;SDS011;42558;52.388;13.390;2022-09-09T08:53:26;7.60;;;3.61;;
56680;SDS011;42558;52.388;13.390;2022-09-09T08:55:59;8.17;;;3.42;;
56680;SDS011;42558;52.388;13.390;2022-09-09T08:58:32;10.64;;;3.61;;
56680;SDS011;42558;52.388;13.390;2022-09-09T09:13:18;7.22;;;3.04;;
56680;SDS011;42558;52.388;13.390;2022-09-09T09:15:56;7.60;;;3.42;;
56680;SDS011;42558;52.388;13.390;2022-09-09T09:18:28;7.03;;;3.61;;
56680;SDS011;42558;52.388;13.390;2022-09-09T09:21:39;11.02;;;3.99;;
56680;SDS011;42558;52.388;13.390;2022-09-09T09:24:22;12.16;;;3.99;;
56680;SDS011;42558;52.388;13.390;2022-09-09T09:27:07;9.50;;;3.80;;
56680;SDS011;42558;52.388;13.390;2022-09-09T09:29:40;9.31;;;3.23;;
56680;SDS011;42558;52.388;13.390;2022-09-09T09:32:33;6.08;;;2.47;;
56680;SDS011;42558;52.388;13.390;2022-09-09T09:35:06;8.93;;;3.04;;
56680;SDS011;42558;52.388;13.390;2022-09-09T09:37:40;11.02;;;2.66;;
56680;SDS011;42558;52.388;13.390;2022-09-09T09:40:30;9.12;;;2.66;;
56680;SDS011;42558;52.388;13.390;2022-09-09T09:42:59;8.74;;;2.47;;
56680;SDS011;42558;52.388;13.390;2022-09-09T09:45:53;6.65;;;2.47;;
56680;SDS011;42558;52.388;13.390;2022-09-09T09:48:41;7.41;;;2.47;;
56680;SDS011;42558;52.388;13.390;2022-09-09T09:51:11;9.50;;;3.23;;
56680;SDS011;42558;52.388;13.390;2022-09-09T09:53:42;8.93;;;2.47;;
56680;SDS011;42558;52.388;13.390;2022-09-09T09:56:12;8.17;;;2.66;;
56680;SDS011;42558;52.388;13.390;2022-09-09T10:01:24;11.02;;;2.47;;
56680;SDS011;42558;52.388;13.390;2022-09-09T10:03:53;8.36;;;2.66;;
56680;SDS011;42558;52.388;13.390;2022-09-09T10:06:35;9.31;;;2.85;;
56680;SDS011;42558;52.388;13.390;2022-09-09T10:15:12;6.84;;;2.85;;
56680;SDS011;42558;52.388;13.390;2022-09-09T10:18:13;7.60;;;3.04;;
56680;SDS011;42558;52.388;13.390;2022-09-09T10:36:13;8.74;;;3.23;;
56680;SDS011;42558;52.388;13.390;2022-09-09T10:38:47;9.50;;;2.85;;
56680;SDS011;42558;52.388;13.390;2022-09-09T10:41:53;7.03;;;2.47;;
56680;SDS011;42558;52.388;13.390;2022-09-09T10:45:14;8.17;;;2.66;;
56680;SDS011;42558;52.388;13.390;2022-09-09T10:50:40;7.03;;;2.66;;
56680;SDS011;42558;52.388;13.390;2022-09-09T10:56:21;8.74;;;2.28;;
56680;SDS011;42558;52.388;13.390;2022-09-09T10:58:56;7.79;;;2.28;;
56680;SDS011;42558;52.388;13.390;2022-09-09T11:01:44;8.17;;;2.66;;
56680;SDS011;42558;52.388;13.390;2022-09-09T11:04:24;8.36;;;2.28;;
56680;SDS011;42558;52.388;13.390;2022-09-09T11:06:58;5.89;;;2.28;;
56680;SDS011;42558;52.388;13.390;2022-09-09T11:09:41;8.36;;;2.28;;
56680;SDS011;42558;52.388;13.390;2022-09-09T11:12:19;10.26;;;2.66;;
56680;SDS011;42558;52.388;13.390;2022-09-09T11:15:08;7.60;;;2.85;;
56680;SDS011;42558;52.388;13.390;2022-09-09T11:17:49;6.65;;;2.28;;
56680;SDS011;42558;52.388;13.390;2022-09-09T11:20:19;6.46;;;2.09;;
56680;SDS011;42558;52.388;13.390;2022-09-09T11:22:51;6.08;;;2.28;;
56680;SDS011;42558;52.388;13.390;2022-09-09T11:25:24;7.03;;;2.47;;
56680;SDS011;42558;52.388;13.390;2022-09-09T11:31:04;9.12;;;3.23;;
56680;SDS011;42558;52.388;13.390;2022-09-09T11:37:00;6.08;;;1.90;;
56680;SDS011;42558;52.388;13.390;2022-09-09T11:42:39;5.89;;;1.90;;
56680;SDS011;42558;52.388;13.390;2022-09-09T11:45:22;6.27;;;1.90;;
56680;SDS011;42558;52.388;13.390;2022-09-09T11:47:56;6.27;;;2.09;;
56680;SDS011;42558;52.388;13.390;2022-09-09T11:52:51;6.27;;;1.90;;
56680;SDS011;42558;52.388;13.390;2022-09-09T11:55:33;5.89;;;2.09;;
56680;SDS011;42558;52.388;13.390;2022-09-09T11:58:06;5.13;;;1.90;;
56680;SDS011;42558;52.388;13.390;2022-09-09T12:00:45;6.65;;;2.28;;
56680;SDS011;42558;52.388;13.390;2022-09-09T12:06:08;6.84;;;1.71;;
56680;SDS011;42558;52.388;13.390;2022-09-09T12:08:44;7.79;;;2.09;;
56680;SDS011;42558;52.388;13.390;2022-09-09T12:11:25;7.98;;;2.47;;
56680;SDS011;42558;52.388;13.390;2022-09-09T12:13:55;8.36;;;2.09;;
56680;SDS011;42558;52.388;13.390;2022-09-09T12:16:37;6.08;;;1.90;;
56680;SDS011;42558;52.388;13.390;2022-09-09T12:25:20;11.59;;;1.71;;
56680;SDS011;42558;52.388;13.390;2022-09-09T12:34:41;5.51;;;1.52;;
56680;SDS011;42558;52.388;13.390;2022-09-09T12:37:18;8.17;;;2.28;;
56680;SDS011;42558;52.388;13.390;2022-09-09T12:39:57;8.17;;;1.71;;
56680;SDS011;42558;52.388;13.390;2022-09-09T12:42:26;6.27;;;1.90;;
56680;SDS011;42558;52.388;13.390;2022-09-09T12:45:02;8.36;;;1.71;;
56680;SDS011;42558;52.388;13.390;2022-09-09T12:47:56;8.55;;;1.90;;
56680;SDS011;42558;52.388;13.390;2022-09-09T12:50:32;8.55;;;2.47;;
56680;SDS011;42558;52.388;13.390;2022-09-09T12:53:07;9.12;;;1.90;;
56680;SDS011;42558;52.388;13.390;2022-09-09T12:55:38;6.84;;;1.71;;
56680;SDS011;42558;52.388;13.390;2022-09-09T12:58:06;6.65;;;2.28;;
56680;SDS011;42558;52.388;13.390;2022-09-09T13:00:34;7.03;;;2.09;;
56680;SDS011;42558;52.388;13.390;2022-09-09T13:03:16;7.03;;;2.09;;
56680;SDS011;42558;52.388;13.390;2022-09-09T13:05:46;6.08;;;1.90;;
56680;SDS011;42558;52.388;13.390;2022-09-09T13:08:15;7.98;;;1.90;;
56680;SDS011;42558;52.388;13.390;2022-09-09T13:13:38;5.89;;;1.90;;
56680;SDS011;42558;52.388;13.390;2022-09-09T13:16:23;6.46;;;2.28;;
56680;SDS011;42558;52.388;13.390;2022-09-09T13:19:16;6.46;;;2.09;;
56680;SDS011;42558;52.388;13.390;2022-09-09T13:21:43;6.27;;;2.09;;
56680;SDS011;42558;52.388;13.390;2022-09-09T13:24:29;7.03;;;1.90;;
56680;SDS011;42558;52.388;13.390;2022-09-09T13:27:32;7.79;;;1.90;;
56680;SDS011;42558;52.388;13.390;2022-09-09T13:30:01;7.60;;;2.09;;
56680;SDS011;42558;52.388;13.390;2022-09-09T13:32:47;6.27;;;1.71;;
56680;SDS011;42558;52.388;13.390;2022-09-09T13:35:23;6.08;;;2.09;;
56680;SDS011;42558;52.388;13.390;2022-09-09T13:37:51;8.17;;;2.28;;
56680;SDS011;42558;52.388;13.390;2022-09-09T13:40:20;5.89;;;1.90;;
56680;SDS011;42558;52.388;13.390;2022-09-09T13:42:52;8.17;;;2.28;;
56680;SDS011;42558;52.388;13.390;2022-09-09T13:45:25;8.74;;;1.90;;
56680;SDS011;42558;52.388;13.390;2022-09-09T13:47:54;7.98;;;2.47;;
56680;SDS011;42558;52.388;13.390;2022-09-09T13:50:24;5.89;;;1.90;;
56680;SDS011;42558;52.388;13.390;2022-09-09T13:52:57;6.84;;;1.71;;
56680;SDS011;42558;52.388;13.390;2022-09-09T13:55:27;6.65;;;1.90;;
56680;SDS011;42558;52.388;13.390;2022-09-09T13:57:57;6.65;;;1.71;;
56680;SDS011;42558;52.388;13.390;2022-09-09T14:00:33;7.41;;;2.28;;
56680;SDS011;42558;52.388;13.390;2022-09-09T14:03:01;7.03;;;2.28;;
56680;SDS011;42558;52.388;13.390;2022-09-09T14:05:32;6.08;;;2.09;;
56680;SDS011;42558;52.388;13.390;2022-09-09T14:08:00;8.55;;;1.90;;
56680;SDS011;42558;52.388;13.390;2022-09-09T14:10:29;5.51;;;2.09;;
56680;SDS011;42558;52.388;13.390;2022-09-09T14:12:57;7.60;;;2.09;;
56680;SDS011;42558;52.388;13.390;2022-09-09T14:15:24;6.65;;;2.28;;
56680;SDS011;42558;52.388;13.390;2022-09-09T14:17:50;6.65;;;1.71;;
56680;SDS011;42558;52.388;13.390;2022-09-09T14:20:18;6.46;;;2.28;;
56680;SDS011;42558;52.388;13.390;2022-09-09T14:22:46;7.60;;;2.28;;
56680;SDS011;42558;52.388;13.390;2022-09-09T14:25:13;6.84;;;2.09;;
56680;SDS011;42558;52.388;13.390;2022-09-09T14:27:40;7.22;;;2.66;;
56680;SDS011;42558;52.388;13.390;2022-09-09T14:30:09;8.93;;;3.04;;
56680;SDS011;42558;52.388;13.390;2022-09-09T14:32:36;7.22;;;2.47;;
56680;SDS011;42558;52.388;13.390;2022-09-09T14:35:03;6.27;;;2.09;;
56680;SDS011;42558;52.388;13.390;2022-09-09T14:37:30;7.22;;;2.09;;
56680;SDS011;42558;52.388;13.390;2022-09-09T14:39:58;7.03;;;2.28;;
56680;SDS011;42558;52.388;13.390;2022-09-09T14:42:25;6.84;;;1.71;;
56680;SDS011;42558;52.388;13.390;2022-09-09T14:44:53;9.12;;;1.52;;
56680;SDS011;42558;52.388;13.390;2022-09-09T14:47:19;5.70;;;1.33;;
56680;SDS011;42558;52.388;13.390;2022-09-09T14:49:46;5.13;;;1.71;;
56680;SDS011;42558;52.388;13.390;2022-09-09T14:52:16;6.46;;;1.33;;
56680;SDS011;42558;52.388;13.390;2022-09-09T14:54:43;7.60;;;2.28;;
56680;SDS011;42558;52.388;13.390;2022-09-09T14:57:10;8.74;;;1.71;;
56680;SDS011;42558;52.388;13.390;2022-09-09T14:59:37;6.84;;;1.71;;
56680;SDS011;42558;52.388;13.390;2022-09-09T15:02:03;7.22;;;2.28;;
56680;SDS011;42558;52.388;13.390;2022-09-09T15:04:31;8.74;;;1.71;;
56680;SDS011;42558;52.388;13.390;2022-09-09T15:06:58;5.89;;;1.71;;
56680;SDS011;42558;52.388;13.390;2022-09-09T15:09:25;6.08;;;1.52;;
56680;SDS011;42558;52.388;13.390;2022-09-09T15:11:52;5.89;;;1.33;;
56680;SDS011;42558;52.388;13.390;2022-09-09T15:14:19;7.79;;;1.52;;
56680;SDS011;42558;52.388;13.390;2022-09-09T15:16:50;6.84;;;1.90;;
56680;SDS011;42558;52.388;13.390;2022-09-09T15:19:17;4.94;;;1.71;;
56680;SDS011;42558;52.388;13.390;2022-09-09T15:21:44;6.08;;;1.52;;
56680;SDS011;42558;52.388;13.390;2022-09-09T15:24:11;5.32;;;1.52;;
56680;SDS011;42558;52.388;13.390;2022-09-09T15:26:39;7.03;;;1.90;;
56680;SDS011;42558;52.388;13.390;2022-09-09T15:29:06;6.65;;;1.71;;
56680;SDS011;42558;52.388;13.390;2022-09-09T15:31:35;8.36;;;1.90;;
56680;SDS011;42558;52.388;13.390;2022-09-09T15:34:04;7.03;;;1.90;;
56680;SDS011;42558;52.388;13.390;2022-09-09T15:36:41;8.36;;;1.71;;
56680;SDS011;42558;52.388;13.390;2022-09-09T15:39:11;6.27;;;1.71;;
56680;SDS011;42558;52.388;13.390;2022-09-09T15:41:46;6.08;;;1.90;;
56680;SDS011;42558;52.388;13.390;2022-09-09T15:44:15;6.84;;;1.90;;
56680;SDS011;42558;52.388;13.390;2022-09-09T15:46:52;7.22;;;2.28;;
56680;SDS011;42558;52.388;13.390;2022-09-09T15:49:22;7.03;;;1.71;;
56680;SDS011;42558;52.388;13.390;2022-09-09T15:51:59;6.08;;;1.71;;
56680;SDS011;42558;52.388;13.390;2022-09-09T15:54:36;7.03;;;2.47;;
56680;SDS011;42558;52.388;13.390;2022-09-09T15:57:10;6.46;;;2.09;;
56680;SDS011;42558;52.388;13.390;2022-09-09T15:59:38;7.79;;;2.09;;
56680;SDS011;42558;52.388;13.390;2022-09-09T16:02:06;7.79;;;1.90;;
56680;SDS011;42558;52.388;13.390;2022-09-09T16:04:33;7.22;;;1.71;;
56680;SDS011;42558;52.388;13.390;2022-09-09T16:07:04;5.89;;;1.90;;
56680;SDS011;42558;52.388;13.390;2022-09-09T16:09:33;6.46;;;1.71;;
56680;SDS011;42558;52.388;13.390;2022-09-09T16:12:03;6.84;;;2.28;;
56680;SDS011;42558;52.388;13.390;2022-09-09T16:14:38;8.55;;;2.09;;
56680;SDS011;42558;52.388;13.390;2022-09-09T16:17:05;8.36;;;2.28;;
56680;SDS011;42558;52.388;13.390;2022-09-09T16:19:33;8.36;;;2.66;;
56680;SDS011;42558;52.388;13.390;2022-09-09T16:22:01;7.79;;;2.09;;
56680;SDS011;42558;52.388;13.390;2022-09-09T16:24:30;6.84;;;1.90;;
56680;SDS011;42558;52.388;13.390;2022-09-09T16:26:57;8.74;;;1.90;;
56680;SDS011;42558;52.388;13.390;2022-09-09T16:29:24;5.51;;;2.09;;
56680;SDS011;42558;52.388;13.390;2022-09-09T16:31:54;5.70;;;1.90;;
56680;SDS011;42558;52.388;13.390;2022-09-09T16:34:29;5.70;;;1.90;;
56680;SDS011;42558;52.388;13.390;2022-09-09T16:36:56;5.70;;;1.90;;
56680;SDS011;42558;52.388;13.390;2022-09-09T16:39:23;7.03;;;1.90;;
56680;SDS011;42558;52.388;13.390;2022-09-09T16:41:50;10.64;;;2.66;;
56680;SDS011;42558;52.388;13.390;2022-09-09T16:44:18;7.41;;;2.28;;
56680;SDS011;42558;52.388;13.390;2022-09-09T16:46:47;7.79;;;2.66;;
56680;SDS011;42558;52.388;13.390;2022-09-09T16:49:15;5.32;;;2.09;;